createdAt,value
2024-02-13T00:02:19.328Z,27.25
2024-02-13T00:04:50.242Z,32.42
2024-02-13T00:07:20.341Z,36.10
2024-02-13T00:09:50.172Z,28.15
2024-02-13T00:12:19.913Z,31.10
2024-02-13T00:14:52.753Z,33.75
2024-02-13T00:17:22.699Z,34.55
2024-02-13T00:19:53.932Z,35.10
2024-02-13T00:22:23.751Z,41.97
2024-02-13T00:24:53.858Z,34.70
2024-02-13T00:27:23.740Z,37.90
2024-02-13T00:29:56.102Z,34.70
2024-02-13T00:32:25.942Z,38.58
2024-02-13T00:34:56.760Z,31.55
2024-02-13T00:37:27.008Z,36.45
2024-02-13T00:39:57.223Z,41.28
2024-02-13T00:42:27.620Z,40.72
2024-02-13T00:45:01.961Z,43.65
2024-02-13T00:47:32.844Z,35.22
2024-02-13T00:50:03.008Z,39.05
2024-02-13T00:52:33.686Z,37.53
2024-02-13T00:55:04.363Z,36.28
2024-02-13T00:57:34.117Z,45.15
2024-02-13T01:00:10.840Z,40.10
2024-02-13T01:02:40.789Z,43.42
2024-02-13T01:05:11.126Z,40.90
2024-02-13T01:07:41.499Z,37.78
2024-02-13T01:10:13.153Z,42.75
2024-02-13T01:12:42.932Z,42.00
2024-02-13T01:15:18.628Z,45.13
2024-02-13T01:17:48.567Z,43.75
2024-02-13T01:20:19.876Z,43.70
2024-02-13T01:22:49.637Z,48.88
2024-02-13T01:25:19.452Z,48.03
2024-02-13T01:27:49.450Z,41.85
2024-02-13T01:30:21.869Z,46.58
2024-02-13T01:32:51.721Z,55.08
2024-02-13T01:35:21.646Z,52.53
2024-02-13T01:37:51.621Z,50.10
2024-02-13T01:40:21.573Z,47.60
2024-02-13T01:42:52.100Z,51.40
2024-02-13T01:45:25.666Z,54.65
2024-02-13T01:47:56.202Z,50.08
2024-02-13T01:50:28.909Z,54.17
2024-02-13T01:52:58.691Z,59.97
2024-02-13T01:55:30.997Z,60.90
2024-02-13T01:58:03.618Z,61.13
2024-02-13T02:00:36.492Z,63.40
2024-02-13T02:03:07.690Z,53.25
2024-02-13T02:05:37.840Z,62.28
2024-02-13T02:08:08.635Z,60.60
2024-02-13T02:10:39.841Z,47.45
2024-02-13T02:13:09.618Z,47.88
2024-02-13T02:15:42.507Z,49.45
2024-02-13T02:18:13.991Z,52.55
2024-02-13T02:20:46.113Z,46.88
2024-02-13T02:23:15.994Z,44.75
2024-02-13T02:25:48.532Z,45.22
2024-02-13T02:28:19.296Z,40.97
2024-02-13T02:30:50.041Z,50.15
2024-02-13T02:33:19.855Z,38.55
2024-02-13T02:35:50.007Z,45.28
2024-02-13T02:38:20.251Z,41.38
2024-02-13T02:40:52.610Z,43.60
2024-02-13T02:43:22.532Z,46.25
2024-02-13T02:45:52.404Z,48.92
2024-02-13T02:48:22.541Z,50.40
2024-02-13T02:50:52.316Z,57.55
2024-02-13T02:53:22.232Z,56.75
2024-02-13T02:55:52.605Z,63.63
2024-02-13T02:58:22.750Z,64.53
2024-02-13T03:00:53.567Z,60.03
2024-02-13T03:03:23.745Z,71.03
2024-02-13T03:05:55.903Z,62.05
2024-02-13T03:08:25.835Z,64.20
2024-02-13T03:10:58.158Z,69.13
2024-02-13T03:13:27.865Z,59.50
2024-02-13T03:15:57.887Z,65.95
2024-02-13T03:18:28.150Z,63.10
2024-02-13T03:20:58.335Z,53.17
2024-02-13T03:23:30.216Z,52.30
2024-02-13T03:26:02.580Z,63.67
2024-02-13T03:28:32.268Z,74.95
2024-02-13T03:31:01.993Z,60.13
2024-02-13T03:33:32.190Z,53.78
2024-02-13T03:36:02.633Z,54.97
2024-02-13T03:38:32.407Z,65.55
2024-02-13T03:41:04.757Z,65.68
2024-02-13T03:43:34.468Z,60.63
2024-02-13T03:46:04.478Z,56.38
2024-02-13T03:48:34.579Z,50.10
2024-02-13T03:51:05.016Z,61.58
2024-02-13T03:53:36.920Z,64.28
2024-02-13T03:56:10.136Z,55.20
2024-02-13T03:58:39.899Z,59.33
2024-02-13T04:01:10.043Z,62.28
2024-02-13T04:03:42.524Z,54.45
2024-02-13T04:06:13.503Z,55.20
2024-02-13T04:08:46.003Z,58.28
2024-02-13T04:11:18.617Z,56.45
2024-02-13T04:13:48.472Z,54.38
2024-02-13T04:16:18.247Z,57.42
2024-02-13T04:18:48.130Z,44.47
2024-02-13T04:21:21.333Z,50.38
2024-02-13T04:23:52.695Z,40.78
2024-02-13T04:26:35.696Z,45.33
2024-02-13T04:29:07.060Z,40.70
2024-02-13T04:31:39.873Z,39.33
2024-02-13T04:34:10.404Z,35.53
2024-02-13T04:36:41.635Z,34.78
2024-02-13T04:39:12.808Z,32.35
2024-02-13T04:41:46.196Z,26.38
2024-02-13T04:44:16.297Z,32.40
2024-02-13T04:46:46.058Z,30.15
2024-02-13T04:49:15.908Z,33.83
2024-02-13T04:51:45.716Z,35.33
2024-02-13T04:54:15.538Z,49.58
2024-02-13T04:56:50.375Z,30.02
2024-02-13T04:59:22.665Z,29.00
2024-02-13T05:01:53.458Z,31.35
2024-02-13T05:04:50.409Z,36.83
2024-02-13T05:07:28.178Z,29.60
2024-02-13T05:09:58.301Z,31.00
2024-02-13T05:12:30.671Z,29.00
2024-02-13T05:15:01.022Z,32.30
2024-02-13T05:17:31.804Z,33.85
2024-02-13T05:20:02.104Z,31.23
2024-02-13T05:22:31.860Z,32.95
2024-02-13T05:25:02.453Z,34.00
2024-02-13T05:27:35.635Z,41.20
2024-02-13T05:30:06.290Z,32.90
2024-02-13T05:32:36.129Z,27.52
2024-02-13T05:35:06.057Z,33.50
2024-02-13T05:37:37.565Z,37.70
2024-02-13T05:40:11.401Z,32.92
2024-02-13T05:42:44.264Z,40.80
2024-02-13T05:45:14.279Z,26.85
2024-02-13T05:47:44.093Z,39.13
2024-02-13T05:50:17.834Z,37.60
2024-02-13T05:52:49.440Z,35.53
2024-02-13T05:55:19.701Z,38.85
2024-02-13T05:57:52.090Z,32.70
2024-02-13T06:00:26.006Z,32.42
2024-02-13T06:02:56.686Z,36.28
2024-02-13T06:05:27.473Z,40.78
2024-02-13T06:07:57.423Z,31.98
2024-02-13T06:10:27.343Z,31.60
2024-02-13T06:12:59.758Z,36.15
2024-02-13T06:15:29.636Z,46.85
2024-02-13T06:17:59.461Z,34.08
2024-02-13T06:20:29.294Z,30.55
2024-02-13T06:22:59.217Z,35.72
2024-02-13T06:25:29.127Z,43.17
2024-02-13T06:28:01.512Z,32.65
2024-02-13T06:30:33.337Z,31.45
2024-02-13T06:33:04.383Z,33.88
2024-02-13T06:35:34.922Z,30.65
2024-02-13T06:38:05.003Z,25.33
2024-02-13T06:40:35.545Z,26.40
2024-02-13T06:43:08.156Z,37.97
2024-02-13T06:45:38.079Z,25.23
2024-02-13T06:48:08.534Z,32.85
2024-02-13T06:50:38.499Z,26.73
2024-02-13T06:53:08.830Z,28.88
2024-02-13T06:55:38.577Z,27.33
2024-02-13T06:58:14.764Z,24.55
2024-02-13T07:00:49.001Z,21.98
2024-02-13T07:03:18.846Z,25.70
2024-02-13T07:05:48.857Z,26.55
2024-02-13T07:08:18.939Z,29.33
2024-02-13T07:10:51.238Z,20.58
2024-02-13T07:13:23.982Z,17.88
2024-02-13T07:15:54.486Z,16.60
2024-02-13T07:18:27.908Z,25.73
2024-02-13T07:21:03.232Z,15.10
2024-02-13T07:23:37.949Z,19.67
2024-02-13T07:26:07.926Z,17.88
2024-02-13T07:28:40.482Z,12.68
2024-02-13T07:31:12.307Z,16.17
2024-02-13T07:33:43.022Z,16.20
2024-02-13T07:36:13.141Z,16.25
2024-02-13T07:38:43.260Z,16.95
2024-02-13T07:41:15.143Z,15.02
2024-02-13T07:43:47.898Z,16.17
2024-02-13T07:46:18.941Z,12.95
2024-02-13T07:48:53.286Z,15.88
2024-02-13T07:51:23.241Z,14.52
2024-02-13T07:53:53.092Z,14.65
2024-02-13T07:56:30.103Z,15.90
2024-02-13T07:59:03.212Z,15.88
2024-02-13T08:01:32.972Z,15.25
2024-02-13T08:04:02.900Z,11.13
2024-02-13T08:06:33.035Z,13.02
2024-02-13T08:09:08.107Z,14.77
2024-02-13T08:11:38.119Z,11.52
2024-02-13T08:14:10.795Z,11.00
2024-02-13T08:16:40.689Z,12.40
2024-02-13T08:19:24.900Z,9.63
2024-02-13T08:23:27.514Z,11.52
2024-02-13T08:26:02.970Z,9.55
2024-02-13T08:31:34.872Z,9.48
2024-02-13T08:34:10.101Z,9.38
2024-02-13T08:57:04.166Z,9.18
2024-02-13T09:01:28.353Z,7.95
2024-02-13T09:03:58.153Z,10.35
2024-02-13T09:06:28.107Z,9.73
2024-02-13T09:09:00.897Z,12.30
2024-02-13T09:11:33.118Z,8.00
2024-02-13T09:14:03.583Z,7.00
2024-02-13T09:16:36.405Z,8.60
2024-02-13T09:19:08.582Z,10.23
2024-02-13T09:21:38.712Z,6.40
2024-02-13T09:24:13.394Z,10.85
2024-02-13T09:26:43.173Z,7.63
2024-02-13T09:29:13.360Z,8.65
2024-02-13T09:31:47.252Z,8.70
2024-02-13T09:36:47.870Z,7.57
2024-02-13T09:39:20.187Z,6.22
2024-02-13T09:41:52.272Z,9.73
2024-02-13T09:44:24.819Z,7.20
2024-02-13T09:46:56.248Z,7.97
2024-02-13T09:49:26.844Z,6.95
2024-02-13T09:52:07.336Z,7.97
2024-02-13T09:54:46.102Z,5.47
2024-02-13T09:57:28.731Z,6.35
2024-02-13T10:00:25.895Z,5.03
2024-02-13T10:06:50.003Z,6.25
2024-02-13T10:10:16.344Z,6.15
2024-02-13T10:12:56.478Z,4.28
2024-02-13T10:19:03.732Z,6.40
2024-02-13T10:24:23.966Z,5.45
2024-02-13T10:27:45.946Z,4.47
2024-02-13T10:31:46.412Z,3.42
2024-02-13T10:35:15.901Z,5.38
2024-02-13T10:38:36.773Z,4.20
2024-02-13T10:51:33.698Z,7.65
2024-02-13T10:55:42.651Z,4.22
2024-02-13T10:59:27.465Z,7.07
2024-02-13T11:02:03.083Z,4.00
2024-02-13T11:08:08.706Z,6.28
2024-02-13T11:14:28.520Z,5.50
2024-02-13T11:17:04.458Z,3.85
2024-02-13T11:19:45.993Z,6.10
2024-02-13T11:22:19.161Z,5.85
2024-02-13T11:24:53.804Z,5.85
2024-02-13T11:27:30.123Z,4.13
2024-02-13T11:30:04.006Z,6.97
2024-02-13T11:33:26.068Z,4.68
2024-02-13T11:39:15.803Z,7.00
2024-02-13T11:41:45.567Z,5.13
2024-02-13T11:44:23.752Z,2.67
2024-02-13T11:46:59.958Z,4.25
2024-02-13T11:49:53.282Z,3.03
2024-02-13T11:52:26.772Z,6.93
2024-02-13T12:37:02.905Z,5.05
2024-02-13T12:39:38.047Z,3.38
2024-02-13T12:42:17.159Z,3.38
2024-02-13T12:44:49.740Z,4.22
2024-02-13T12:47:20.800Z,5.75
2024-02-13T12:49:59.415Z,4.50
2024-02-13T12:52:29.220Z,2.65
2024-02-13T12:54:59.888Z,3.58
2024-02-13T12:57:32.335Z,4.53
2024-02-13T13:00:02.299Z,7.05
2024-02-13T13:02:34.314Z,4.53
2024-02-13T13:05:07.609Z,2.38
2024-02-13T13:07:41.904Z,2.05
2024-02-13T13:10:14.825Z,3.13
2024-02-13T13:12:46.254Z,4.15
2024-02-13T13:15:22.625Z,2.78
2024-02-13T13:17:56.055Z,2.63
2024-02-13T13:20:29.622Z,2.22
2024-02-13T13:23:02.550Z,3.75
2024-02-13T13:25:33.133Z,7.03
2024-02-13T13:28:06.804Z,5.10
2024-02-13T13:33:08.040Z,8.63
2024-02-13T13:35:41.468Z,3.72
2024-02-13T13:38:11.461Z,4.53
2024-02-13T13:40:41.379Z,4.88
2024-02-13T13:43:12.407Z,2.30
2024-02-13T13:45:55.121Z,3.60
2024-02-13T13:48:26.568Z,6.80
2024-02-13T13:50:59.485Z,3.92
2024-02-13T13:53:29.267Z,3.97
2024-02-13T13:55:59.471Z,5.88
2024-02-13T13:58:31.318Z,5.10
2024-02-13T14:01:01.457Z,4.75
2024-02-13T14:03:33.354Z,2.88
2024-02-13T14:06:06.176Z,3.95
2024-02-13T14:08:39.816Z,3.33
2024-02-13T14:11:10.004Z,6.47
2024-02-13T14:13:39.978Z,5.10
2024-02-13T14:16:10.438Z,5.60
2024-02-13T14:18:40.706Z,2.50
2024-02-13T14:21:13.997Z,3.72
2024-02-13T14:23:44.219Z,5.63
2024-02-13T14:26:14.573Z,2.53
2024-02-13T14:28:44.303Z,3.15
2024-02-13T14:31:14.056Z,4.63
2024-02-13T14:33:44.012Z,5.03
2024-02-13T14:36:16.872Z,5.50
2024-02-13T14:38:47.001Z,4.13
2024-02-13T14:41:17.964Z,2.78
2024-02-13T14:43:49.225Z,1.90
2024-02-13T14:46:18.967Z,2.67
2024-02-13T14:48:49.922Z,2.13
2024-02-13T14:51:23.720Z,4.65
2024-02-13T14:53:53.607Z,3.50
2024-02-13T14:56:23.461Z,3.85
2024-02-13T14:58:53.249Z,4.57
2024-02-13T15:01:26.169Z,6.15
2024-02-13T15:03:56.250Z,2.35
2024-02-13T15:06:28.759Z,6.38
2024-02-13T15:08:58.686Z,4.03
2024-02-13T15:11:28.721Z,4.22
2024-02-13T15:14:00.701Z,6.50
2024-02-13T15:16:31.570Z,2.38
2024-02-13T15:19:04.765Z,3.35
2024-02-13T15:21:37.243Z,3.45
2024-02-13T15:24:09.653Z,3.85
2024-02-13T15:26:39.760Z,7.13
2024-02-13T15:29:11.321Z,3.78
2024-02-13T15:31:42.106Z,3.33
2024-02-13T15:34:12.147Z,9.80
2024-02-13T15:37:02.386Z,4.75
2024-02-13T15:39:45.547Z,4.03
2024-02-13T15:42:27.754Z,3.05
2024-02-13T15:45:10.115Z,3.33
2024-02-13T15:47:40.234Z,6.95
2024-02-13T15:50:12.534Z,6.07
2024-02-13T15:52:44.968Z,4.05
2024-02-13T15:55:18.240Z,6.53
2024-02-13T15:57:48.459Z,4.45
2024-02-13T16:00:21.761Z,4.40
2024-02-13T16:02:51.654Z,9.13
2024-02-13T16:05:27.746Z,4.28
2024-02-13T16:08:00.714Z,5.53
2024-02-13T16:10:33.169Z,3.88
2024-02-13T16:13:03.387Z,8.32
2024-02-13T16:15:33.771Z,4.95
2024-02-13T16:18:04.380Z,10.02
2024-02-13T16:20:34.456Z,3.58
2024-02-13T16:23:10.153Z,3.90
2024-02-13T16:25:39.942Z,6.47
2024-02-13T16:28:10.090Z,10.02
2024-02-13T16:33:13.307Z,4.10
2024-02-13T16:35:43.151Z,4.32
2024-02-13T16:38:16.720Z,5.53
2024-02-13T16:40:47.727Z,4.07
2024-02-13T16:43:17.665Z,5.15
2024-02-13T16:45:47.958Z,5.28
2024-02-13T16:48:18.212Z,6.93
2024-02-13T16:50:48.176Z,4.45
2024-02-13T16:53:22.967Z,4.25
2024-02-13T16:55:52.768Z,7.00
2024-02-13T16:58:22.849Z,5.00
2024-02-13T17:00:53.816Z,6.03
2024-02-13T17:03:23.796Z,8.48
2024-02-13T17:05:54.223Z,6.45
2024-02-13T17:08:26.751Z,4.43
2024-02-13T17:10:56.512Z,8.10
2024-02-13T17:13:26.291Z,5.20
2024-02-13T17:15:56.791Z,4.45
2024-02-13T17:18:26.893Z,4.57
2024-02-13T17:20:57.294Z,4.50
2024-02-13T17:23:29.744Z,7.80
2024-02-13T17:25:59.532Z,5.05
2024-02-13T17:28:29.370Z,3.42
2024-02-13T17:30:59.321Z,4.75
2024-02-13T17:33:29.292Z,5.20
2024-02-13T17:36:01.190Z,7.38
2024-02-13T17:38:37.553Z,3.83
2024-02-13T17:41:09.229Z,4.22
2024-02-13T17:43:39.188Z,5.25
2024-02-13T17:46:09.204Z,5.82
2024-02-13T17:48:39.676Z,6.32
2024-02-13T17:51:09.974Z,9.90
2024-02-13T17:53:42.573Z,8.85
2024-02-13T17:56:13.853Z,7.05
2024-02-13T17:58:43.806Z,7.93
2024-02-13T18:01:14.751Z,7.40
2024-02-13T18:03:44.796Z,7.90
2024-02-13T18:06:15.542Z,8.38
2024-02-13T18:08:48.042Z,7.93
2024-02-13T18:11:17.872Z,11.00
2024-02-13T18:13:47.606Z,10.45
2024-02-13T18:16:17.521Z,11.13
2024-02-13T18:18:48.445Z,6.32
2024-02-13T18:21:18.605Z,8.07
2024-02-13T18:23:55.520Z,8.05
2024-02-13T18:26:26.009Z,6.55
2024-02-13T18:28:55.895Z,14.00
2024-02-13T18:31:26.365Z,6.88
2024-02-13T18:33:56.364Z,11.85
2024-02-13T18:36:28.907Z,6.97
2024-02-13T18:39:01.343Z,8.77
2024-02-13T18:41:31.239Z,9.85
2024-02-13T18:44:01.047Z,7.43
2024-02-13T18:46:32.322Z,6.85
2024-02-13T18:49:02.554Z,8.07
2024-02-13T18:51:32.443Z,7.97
2024-02-13T18:54:05.103Z,7.00
2024-02-13T18:56:35.935Z,7.65
2024-02-13T18:59:06.452Z,6.97
2024-02-13T19:01:36.269Z,9.45
2024-02-13T19:04:06.189Z,7.40
2024-02-13T19:06:36.007Z,8.20
2024-02-13T19:09:09.433Z,7.90
2024-02-13T19:11:39.572Z,10.45
2024-02-13T19:14:12.352Z,8.93
2024-02-13T19:16:45.995Z,7.45
2024-02-13T19:19:19.523Z,12.65
2024-02-13T19:21:49.454Z,10.45
2024-02-13T19:24:23.233Z,7.10
2024-02-13T19:26:53.980Z,7.47
2024-02-13T19:29:23.828Z,7.22
2024-02-13T19:31:53.766Z,9.52
2024-02-13T19:34:28.116Z,7.35
2024-02-13T19:36:58.366Z,7.75
2024-02-13T19:39:34.662Z,7.25
2024-02-13T19:42:05.468Z,8.60
2024-02-13T19:44:35.379Z,7.60
2024-02-13T19:47:05.137Z,10.07
2024-02-13T19:49:34.908Z,8.32
2024-02-13T19:52:04.810Z,7.88
2024-02-13T19:54:37.361Z,8.38
2024-02-13T19:57:07.910Z,8.30
2024-02-13T19:59:39.067Z,7.03
2024-02-13T20:02:09.296Z,6.00
2024-02-13T20:04:39.097Z,6.60
2024-02-13T20:07:09.002Z,9.88
2024-02-13T20:09:42.347Z,8.27
2024-02-13T20:12:12.277Z,7.47
2024-02-13T20:14:42.187Z,9.15
2024-02-13T20:17:12.074Z,5.35
2024-02-13T20:19:43.840Z,5.72
2024-02-13T20:22:14.731Z,7.57
2024-02-13T20:24:47.310Z,8.95
2024-02-13T20:27:17.449Z,9.43
2024-02-13T20:29:47.622Z,7.53
2024-02-13T20:32:17.681Z,11.95
2024-02-13T20:34:47.839Z,7.82
2024-02-13T20:37:20.629Z,10.23
2024-02-13T20:39:53.557Z,6.63
2024-02-13T20:42:25.085Z,6.25
2024-02-13T20:45:01.331Z,6.05
2024-02-13T20:47:37.495Z,5.55
2024-02-13T20:50:08.311Z,7.32
2024-02-13T20:52:38.470Z,7.68
2024-02-13T20:55:14.929Z,8.70
2024-02-13T20:57:45.072Z,10.38
2024-02-13T21:00:16.676Z,8.05
2024-02-13T21:02:49.310Z,9.35
2024-02-13T21:05:23.011Z,7.93
2024-02-13T21:07:52.866Z,14.90
2024-02-13T21:10:25.390Z,10.20
2024-02-13T21:12:56.445Z,8.32
2024-02-13T21:15:26.360Z,8.40
2024-02-13T21:17:56.267Z,9.43
2024-02-13T21:20:31.254Z,9.70
2024-02-13T21:23:13.712Z,8.32
2024-02-13T21:25:46.422Z,8.95
2024-02-13T21:28:16.233Z,6.75
2024-02-13T21:30:46.453Z,9.63
2024-02-13T21:33:16.668Z,8.25
2024-02-13T21:35:46.672Z,13.23
2024-02-13T21:38:16.563Z,11.60
2024-02-13T21:40:49.246Z,11.02
2024-02-13T21:43:19.207Z,9.02
2024-02-13T21:45:49.335Z,12.82
2024-02-13T21:48:19.245Z,10.02
2024-02-13T21:50:49.240Z,10.80
2024-02-13T21:53:19.067Z,8.85
2024-02-13T21:55:51.580Z,9.70
2024-02-13T21:58:21.564Z,10.65
2024-02-13T22:00:52.100Z,8.23
2024-02-13T22:03:21.973Z,8.50
2024-02-13T22:05:51.845Z,7.35
2024-02-13T22:08:21.720Z,9.82
2024-02-13T22:10:54.756Z,8.90
2024-02-13T22:13:24.608Z,16.02
2024-02-13T22:15:56.040Z,7.68
2024-02-13T22:18:26.747Z,8.30
2024-02-13T22:20:56.906Z,7.88
2024-02-13T22:23:26.894Z,8.77
2024-02-13T22:26:04.990Z,9.60
2024-02-13T22:28:34.768Z,12.88
2024-02-13T22:31:04.716Z,9.68
2024-02-13T22:33:34.693Z,8.93
2024-02-13T22:36:04.926Z,7.35
2024-02-13T22:38:34.767Z,6.88
2024-02-13T22:41:11.177Z,9.48
2024-02-13T22:43:41.044Z,7.03
2024-02-13T22:46:10.834Z,8.60
2024-02-13T22:48:41.616Z,8.43
2024-02-13T22:51:12.009Z,7.47
2024-02-13T22:53:41.936Z,7.53
2024-02-13T22:56:14.568Z,7.93
2024-02-13T22:58:44.392Z,7.20
2024-02-13T23:01:15.572Z,6.28
2024-02-13T23:03:45.385Z,7.50
2024-02-13T23:06:15.375Z,8.55
2024-02-13T23:08:45.516Z,7.82
2024-02-13T23:11:18.044Z,5.90
2024-02-13T23:13:51.046Z,6.57
2024-02-13T23:16:24.666Z,6.72
2024-02-13T23:18:55.202Z,7.25
2024-02-13T23:21:25.548Z,8.48
2024-02-13T23:23:55.371Z,6.93
2024-02-13T23:26:27.846Z,6.32
2024-02-13T23:28:57.790Z,6.07
2024-02-13T23:31:27.994Z,5.57
2024-02-13T23:33:58.015Z,5.40
2024-02-13T23:36:27.936Z,6.68
2024-02-13T23:38:57.804Z,4.28
2024-02-13T23:41:30.229Z,5.15
2024-02-13T23:44:00.732Z,5.35
2024-02-13T23:46:30.652Z,6.90
2024-02-13T23:49:00.773Z,4.40
2024-02-13T23:51:30.726Z,8.15
2024-02-13T23:54:00.836Z,5.05
2024-02-13T23:56:33.386Z,5.28
2024-02-13T23:59:04.274Z,4.57
